Aérodrome :
LOGIN :

S'inscrire | Disclaimer

   EN    FR    IT 

 










Légende :    VFR   VFR Marginal   IFR   IFR Intensif   IFR Très Intensif
Visi : 
Plafond : 
>= 8 km
>= 3000ft
5 à 8 km
1000 à 3000 ft
1500m à 5 km
500 à 1000 ft
800 à 1500m
200 à 500 ft
< 800m
< 200 ft
Symboles :   Orages  Brouillard  Fortes neiges  Fortes précipitations  Vent > 20 kt
SIGMETs :   Divers  Orages  Givrage  Turbulence  Onde Orograph.  Cendres Volcan.







- Altitude de l'aérodrome : 788 ft
- Code IATA : DCM
- Voir les cartes d'approche


LFCK - Castres-Mazamet

DERNIER METAR :
  • 260730Z AUTO 29008KT 6000 OVC007 12/11 Q1021 TEMPO 4000 -RADZ OVC004

METARs EXPIRÉS :
  • 260700Z AUTO 28009KT 9999 OVC007 12/11 Q1021 TEMPO 4000 -RADZ OVC004
  • 260630Z AUTO 27011KT 9999 OVC007 12/11 Q1021 TEMPO 4000 -RADZ OVC004
  • 260600Z AUTO 26010KT 9999 OVC008 12/11 Q1021 TEMPO 4000 -RADZ OVC004
  • 260500Z AUTO 26011KT 9999 -RA OVC007 11/11 Q1021
  • 260430Z AUTO 27008KT 4100 -RA BR OVC005 11/11 Q1021

TAF TAF LFCK
Valide du 26 à 06h jusqu'au 26 à 15h UTC


260500Z 2606/2615 27009KT 9999 BKN014
TEMPO 2606/2612 4000 -RADZ OVC004
Pas de NOTAMs connus pour ce terrain.



MET'MAP, la Météo Aéronautique d'un coup d'oeil ! - Copyright ORBIFLY Décembre 2007 - Disclaimer

ORBIFLY MET'MAP TEAM :

Programmation & Développement : Alexandra Zaïnal
Conception & Développement : Baudouin d'Aumeries
Co-Programmation & Développement : Marc-Olivier Méhu
Soutien technique & logistique : Manuel Goepfert

Contact : metmap@orbifly.com




SOURCES & CREDITS :

   NOAA